Station: Cleve Airport

  Atmospheric Gas Attenuation - ITU Rec 676-11   --------------- db/100km ---------------
Date Time Temp RH % AH g/m3 Dew Point Wind Direction Speed kph Gust kph Barometer mB Rainfall Since 9am 24GHz 47GHz 76GHz 122GHz 134GHz 241GHz
24 18:40 31.4 24 7.85 8.4 17 19 1002.5 0 17.3 20.1 29.4 77.0 70.6 243.0
24 18:30 31.4 24 7.85 8.4 20 26 1002.3 0 17.3 20.1 29.4 76.9 70.6 243.0
24 18:20 32.2 24 8.19 9.1 24 28 1002.3 0 17.9 20.3 30.1 79.0 73.3 252.7
24 18:10 32.2 23 7.85 8.4 19 22 1002.1 0 17.2 19.9 29.1 76.2 69.9 240.7
24 18:00 33.3 21 7.6 8 19 26 1002 0 16.7 19.4 27.9 73.2 66.5 228.9
24 17:50 33.3 21 7.6 8 20 22 1002.1 0 16.7 19.4 28.0 73.2 66.5 228.9
24 17:40 32.8 21 7.4 7.6 20 22 1002.3 0 16.3 19.2 27.5 72.1 64.9 223.4
24 17:30 34 21 7.88 8.6 24 30 1002.2 0 17.2 19.6 28.6 74.8 68.7 236.6
24 17:20 33.9 21 7.84 8.5 24 28 1002.3 0 17.1 19.6 28.5 74.6 68.4 235.6
24 17:10 34.2 21 7.97 8.8 24 28 1002.4 0 17.4 19.7 28.8 75.4 69.4 239.2
24 17:00 34.3 20 7.63 8.1 28 39 1002.2 0 16.7 19.2 27.7 72.6 66.0 227.3
24 16:50 35.7 19 7.79 8.5 30 32 1002.2 0 17.0 19.1 27.7 72.7 66.4 228.9
24 16:40 34.5 20 7.71 8.3 37 43 1002 0 16.8 19.3 27.9 73.1 66.6 229.4
24 16:30 37 17 7.46 7.9 32 44 1001.8 0 16.2 18.5 26.4 69.1 62.3 214.6
24 16:20 36.7 16 6.91 6.8 28 33 1002.2 0 15.1 17.9 24.9 65.2 57.5 197.5
24 16:10 37.1 16 7.05 7.1 33 41 1001.9 0 15.4 18.0 25.2 65.9 58.5 201.1
24 16:00 41.1 9 4.86 2 24 37 1002.1 0 10.8 15.0 18.5 48.1 37.5 127.4
24 15:50 41.2 9 4.88 2 30 39 1002.2 0 10.9 15.0 18.6 48.2 37.6 127.9
24 15:40 41.5 9 4.95 2.3 24 30 1002.3 0 11.0 15.0 18.7 48.5 38.0 129.4
24 15:30 40.9 9 4.81 1.8 33 56 1002.2 0 10.8 15.0 18.4 47.9 37.2 126.3
24 15:20 41.4 9 4.93 2.2 35 43 1002.3 0 11.0 15.0 18.6 48.4 37.9 129.0
24 15:10 41.2 9 4.88 2 37 54 1002.1 0 10.9 15.0 18.6 48.2 37.6 127.8
24 15:00 41.5 10 5.51 3.7 32 50 1002.3 0 12.1 15.6 20.0 52.2 42.6 145.5
24 14:50 40.7 10 5.29 3.1 39 46 1002.5 0 11.7 15.5 19.7 51.2 41.2 140.4
24 14:40 40.8 10 5.32 3.2 24 30 1002.4 0 11.8 15.5 19.7 51.3 41.4 141.1
24 14:30 41 9 4.83 1.9 32 48 1002.4 0 10.8 15.0 18.5 48.0 37.3 126.7
24 14:20 40.8 8 4.25 0.1 35 43 1002.5 0 9.6 14.4 17.1 44.3 32.8 110.7
24 14:10 41.5 8 4.4 0.6 30 39 1002.5 0 9.9 14.5 17.3 45.0 33.7 114.0
24 14:00 42 8 4.51 1 30 54 1002.3 0 10.1 14.5 17.5 45.4 34.3 116.4
24 13:50 42.2 8 4.56 1.1 32 33 1002.5 0 10.2 14.6 17.6 45.6 34.7 117.5
24 13:40 42 8 4.51 1 32 39 1002.6 0 10.1 14.5 17.5 45.4 34.3 116.4
24 13:30 42.5 8 4.63 1.3 33 52 1002.6 0 10.3 14.6 17.7 45.9 35.1 119.1
24 13:20 41.7 8 4.45 0.8 35 39 1002.8 0 10.0 14.5 17.4 45.2 34.0 115.2
24 13:10 41.4 8 4.38 0.5 32 43 1002.9 0 9.9 14.5 17.3 44.9 33.6 113.6
24 13:00 41.1 8 4.32 0.3 33 48 1003 0 9.8 14.5 17.2 44.7 33.2 112.3
24 12:50 41.1 8 4.32 0.3 37 46 1003.2 0 9.8 14.5 17.3 44.7 33.2 112.3
24 12:40 41.6 8 4.43 0.7 39 46 1003.3 0 10.0 14.5 17.4 45.1 33.9 114.8
24 12:30 41.5 8 4.4 0.6 37 56 1003.2 0 9.9 14.5 17.4 45.0 33.7 114.1
24 12:20 40.7 8 4.23 0 35 43 1003.5 0 9.6 14.5 17.1 44.3 32.7 110.3
24 12:10 41 8 4.3 0.3 33 43 1003.5 0 9.7 14.5 17.2 44.6 33.1 111.9
24 12:00 41 8 4.3 0.3 35 48 1003.5 0 9.7 14.5 17.2 44.6 33.1 111.9
24 11:50 41 8 4.3 0.3 30 35 1003.8 0 9.7 14.5 17.2 44.6 33.1 112.0
24 11:40 40.6 8 4.21 0 33 46 1003.8 0 9.6 14.5 17.1 44.3 32.6 109.9
24 11:30 40.3 8 4.15 -0.3 35 48 1003.8 0 9.4 14.5 17.0 44.0 32.2 108.6
24 11:20 40.1 9 4.62 1.2 44 56 1003.8 0 10.4 14.9 18.2 47.2 36.0 122.2
24 11:10 39.9 9 4.57 1.1 33 52 1003.9 0 10.3 14.9 18.1 47.0 35.7 121.0
24 11:00 39.4 9 4.46 0.7 32 46 1004 0 10.1 14.9 17.9 46.5 35.0 118.6
24 10:50 38.9 9 4.35 0.3 28 32 1004 0 9.9 14.9 17.8 46.0 34.3 116.1
24 10:40 38.3 9 4.22 -0.1 30 35 1004.1 0 9.6 14.8 17.6 45.5 33.5 113.1
24 10:30 37.6 10 4.52 0.8 33 44 1004.2 0 10.3 15.2 18.5 47.9 36.3 122.8
24 10:20 37.4 10 4.48 0.7 26 32 1004.2 0 10.2 15.2 18.4 47.7 36.0 121.9
24 10:10 37.3 10 4.45 0.6 24 28 1004.3 0 10.1 15.2 18.4 47.6 35.8 121.1
24 10:00 36.7 10 4.32 0.1 33 46 1004.4 0 9.9 15.2 18.2 47.0 35.0 118.1
24 09:50 35.9 11 4.56 0.9 37 44 1004.4 0 10.4 15.5 18.9 49.1 37.3 126.4
24 09:40 36.1 10 4.19 -0.3 35 43 1004.4 0 9.6 15.1 18.0 46.5 34.1 115.1
24 09:30 35.2 11 4.4 0.3 28 39 1004.5 0 10.1 15.5 18.7 48.4 36.3 122.6
24 09:20 35.4 11 4.44 0.5 32 37 1004.4 0 10.2 15.5 18.7 48.5 36.5 123.5
24 09:10 35.2 11 4.4 0.3 33 37 1004.4 0 10.1 15.5 18.7 48.4 36.3 122.6
24 09:00 34.8 11 4.31 0 30 43 1004.4 0 9.9 15.4 18.5 48.0 35.7 120.4
24 08:50 34.5 11 4.24 -0.2 28 32 1004.5 0 9.8 15.4 18.4 47.7 35.2 118.7
24 08:40 34.1 11 4.15 -0.5 32 35 1004.5 0 9.6 15.4 18.3 47.3 34.6 116.6
24 08:30 33.7 11 4.06 -0.8 30 32 1004.6 0 9.4 15.4 18.1 46.9 34.0 114.4
24 08:20 33.4 11 4 -1 30 35 1004.5 0 9.3 15.3 18.0 46.6 33.6 112.9
24 08:10 33.3 11 3.98 -1.1 32 35 1004.4 0 9.3 15.3 18.0 46.5 33.4 112.5
24 08:00 33.2 11 3.96 -1.2 30 39 1004.3 0 9.2 15.3 18.0 46.4 33.3 112.0
24 07:50 33.3 11 3.98 -1.1 32 39 1004.2 0 9.3 15.3 18.0 46.5 33.4 112.4
24 07:40 33 12 4.27 -0.2 33 41 1004.2 0 9.9 15.7 18.8 48.7 36.1 121.7
24 07:30 33 11 3.92 -1.4 30 39 1004 0 9.2 15.3 17.9 46.2 33.0 111.0
24 07:20 32.9 12 4.25 -0.2 32 35 1003.9 0 9.8 15.7 18.8 48.6 35.9 121.1
24 07:10 32.6 12 4.18 -0.5 28 33 1003.8 0 9.7 15.6 18.6 48.3 35.4 119.4
24 07:00 32.7 12 4.21 -0.4 32 44 1003.5 0 9.8 15.6 18.7 48.4 35.6 120.2
24 06:50 32.4 12 4.14 -0.6 35 39 1003.5 0 9.6 15.6 18.6 48.1 35.1 118.4
24 06:40 32.1 12 4.07 -0.9 32 35 1003.5 0 9.5 15.6 18.5 47.7 34.7 116.7
24 06:30 32.3 12 4.12 -0.7 32 41 1003.3 0 9.6 15.6 18.5 48.0 35.0 117.9
24 06:20 32.5 12 4.16 -0.5 35 41 1003.4 0 9.7 15.6 18.6 48.1 35.3 118.9
24 06:10 32 12 4.05 -0.9 28 32 1003.4 0 9.4 15.6 18.4 47.6 34.5 116.2
24 06:00 32.1 12 4.07 -0.9 32 41 1003.3 0 9.5 15.6 18.4 47.7 34.7 116.6
24 05:50 31.4 13 4.25 -0.3 28 32 1003.2 0 9.9 15.9 19.1 49.4 36.5 123.2
24 05:40 31.5 13 4.27 -0.2 26 32 1003.2 0 9.9 15.9 19.1 49.5 36.7 123.6
24 05:30 31.5 13 4.27 -0.2 30 39 1003.1 0 9.9 15.9 19.1 49.5 36.6 123.6
24 05:20 31.5 13 4.27 -0.2 32 35 1003.1 0 9.9 15.9 19.1 49.5 36.6 123.6
24 04:50 31.8 13 4.34 0 35 41 1003.3 0 10.0 15.9 19.2 49.8 37.1 125.4
24 04:40 32.2 13 4.44 0.3 32 35 1003.3 0 10.2 16.0 19.4 50.3 37.9 127.9
24 04:30 32.2 12 4.1 -0.8 32 41 1003.3 0 9.5 15.6 18.5 47.9 34.9 117.4
24 04:20 32.2 12 4.1 -0.8 32 35 1003.4 0 9.5 15.6 18.5 47.9 34.9 117.4
24 04:10 32.3 12 4.12 -0.7 32 37 1003.4 0 9.6 15.6 18.5 48.0 35.0 117.9
24 04:00 32.8 12 4.23 -0.3 32 41 1003.3 0 9.8 15.6 18.7 48.5 35.8 120.6
24 03:50 32.7 12 4.21 -0.4 32 37 1003.4 0 9.8 15.6 18.7 48.4 35.6 120.1
24 03:40 32.8 12 4.23 -0.3 33 35 1003.5 0 9.8 15.7 18.7 48.5 35.8 120.6
24 03:30 33 12 4.27 -0.2 32 41 1003.4 0 9.9 15.7 18.8 48.6 36.0 121.6
24 03:20 32.7 12 4.21 -0.4 30 33 1003.6 0 9.8 15.7 18.7 48.4 35.6 120.2
24 03:10 32.6 12 4.18 -0.5 28 32 1003.7 0 9.7 15.6 18.6 48.2 35.4 119.4
24 03:00 32.6 12 4.18 -0.5 32 41 1003.6 0 9.7 15.6 18.6 48.2 35.4 119.4
24 02:50 32.8 12 4.23 -0.3 30 35 1003.8 0 9.8 15.7 18.7 48.5 35.8 120.7
24 02:40 32.5 13 4.51 0.6 28 33 1003.9 0 10.4 16.0 19.5 50.7 38.4 129.8
24 02:30 32 14 4.73 1.2 24 33 1004.2 0 10.8 16.3 20.3 52.6 40.6 137.4
24 02:20 31.8 14 4.68 1 24 26 1004.3 0 10.7 16.3 20.2 52.3 40.2 136.2
24 02:10 31.6 14 4.63 0.9 22 28 1004.5 0 10.6 16.3 20.1 52.1 39.9 135.0
24 02:00 31.6 14 4.63 0.9 24 28 1004.6 0 10.6 16.3 20.1 52.1 39.9 135.0
24 01:50 31.5 13 4.27 -0.2 24 28 1004.7 0 9.9 15.9 19.1 49.6 36.7 123.8

Last Refresh: 24-Jan-2021 18:51:09

Most of the information presented on this site is sourced from the Bureau of Meteorology.  Copyright in all material sourced from the Bureau of Meteorology resides with the Commonwealth of Australia.